Aeroporto :
LOGIN :

Iscrizione | Disclaimer

   EN    FR    IT 

 










Sommario :    VFR   VFR Marginale   IFR   IFR Intensivo   IFR Molto Intensivo
Visibilità : 
Base nubi : 
>= 8 km
>= 3000ft
5 / 8 km
1000 / 3000 ft
1500m / 5 km
500 / 1000 ft
800 / 1500m
200 / 500 ft
< 800m
< 200 ft
Simboli :   Temporali  Nebbia  Neve Forte  Precipitazioni Forti  Vento > 20 kt
SIGMETs :   Varie  Temporali  Ghiacco  Turbolenza  Onda orograficha  Ceneri Vulcaniche







- Altitudine del aeroporto : 598 ft
- Codice IATA : BQH
- Carte del aeroporto


EGKB - Biggin Hill

ULTIMO METAR :
  • 200820Z 26010KT 230V290 9999 SCT018 15/11 Q1012

METARs OBSOLETI :
  • 200750Z 26008KT 230V300 9999 SCT014 14/11 Q1012
  • 200720Z 28009KT 240V320 9999 FEW012 13/11 Q1012
  • 200650Z 27009KT 240V300 9999 FEW010 13/11 Q1012
  • 200620Z 27007KT 210V300 9999 FEW045 13/11 Q1011
  • 200550Z 27007KT 230V300 9999 FEW040 12/11 Q1011

TAF TAF EGKB
Valido dal 20 a 09 ore il 20 a 18 ore UTC


200759Z 2009/2018 26010KT 9999 SCT020
PROB30
TEMPO 2011/2018 6000 SHRA
Nessun NOTAM noto per questo aeroporto.



MetMap, La meteo Aeronautica in un colpo d'occhio ! - Copyright ORBIFLY Dicembre 2007 - Disclaimer

ORBIFLY MET'MAP TEAM :

Programmazione e sviluppo : Alexandra Zaïnal
Concezione e sviluppo : Baudouin d'Aumeries
Co-Programmazione e sviluppo : Marc-Olivier Méhu
Supporto tecnico e logistico : Manuel Goepfert
Aiuto per la traduzione : Arnaldo La Scala

Contatto : metmap@orbifly.com




FONTI E CREDITI :

   NOAA